createdAt,value
2022-12-05T00:01:19.586Z,30.48
2022-12-05T00:03:48.221Z,29.55
2022-12-05T00:06:15.380Z,28.35
2022-12-05T00:08:42.267Z,29.13
2022-12-05T00:11:17.455Z,29.58
2022-12-05T00:13:44.939Z,28.65
2022-12-05T00:16:14.344Z,29.70
2022-12-05T00:18:41.380Z,28.75
2022-12-05T00:21:25.269Z,28.17
2022-12-05T00:23:53.580Z,28.98
2022-12-05T00:26:21.011Z,29.27
2022-12-05T00:28:47.879Z,30.60
2022-12-05T00:31:17.105Z,28.67
2022-12-05T00:33:44.658Z,28.55
2022-12-05T00:36:18.425Z,29.08
2022-12-05T00:38:45.386Z,28.67
2022-12-05T00:41:19.016Z,29.00
2022-12-05T00:43:46.516Z,28.90
2022-12-05T00:46:19.120Z,29.50
2022-12-05T00:48:46.604Z,29.33
2022-12-05T00:51:22.729Z,30.40
2022-12-05T00:53:49.559Z,29.33
2022-12-05T00:56:19.051Z,29.67
2022-12-05T00:58:46.241Z,28.38
2022-12-05T01:01:16.384Z,27.00
2022-12-05T01:03:44.427Z,29.67
2022-12-05T01:06:13.676Z,28.65
2022-12-05T01:08:40.668Z,29.38
2022-12-05T01:11:09.152Z,27.75
2022-12-05T01:13:35.915Z,29.45
2022-12-05T01:16:02.766Z,28.00
2022-12-05T01:18:29.658Z,29.10
2022-12-05T01:20:56.334Z,29.20
2022-12-05T01:23:23.045Z,29.52
2022-12-05T01:25:51.880Z,29.05
2022-12-05T01:28:18.872Z,28.45
2022-12-05T01:30:47.586Z,29.55
2022-12-05T01:33:14.245Z,28.35
2022-12-05T01:35:41.908Z,29.30
2022-12-05T01:38:10.098Z,29.13
2022-12-05T01:40:36.651Z,29.60
2022-12-05T01:43:04.457Z,28.38
2022-12-05T01:45:39.847Z,30.33
2022-12-05T01:50:38.164Z,29.10
2022-12-05T01:53:05.556Z,29.70
2022-12-05T01:55:33.575Z,29.55
2022-12-05T01:58:02.155Z,30.40
2022-12-05T02:00:28.978Z,29.33
2022-12-05T02:03:02.549Z,30.92
2022-12-05T02:05:34.471Z,29.45
2022-12-05T02:08:04.304Z,30.33
2022-12-05T02:10:38.236Z,30.73
2022-12-05T02:13:16.663Z,30.45
2022-12-05T02:15:56.836Z,31.58
2022-12-05T02:18:42.407Z,31.10
2022-12-05T02:21:50.416Z,30.15
2022-12-05T02:24:41.700Z,29.83
2022-12-05T02:27:21.159Z,30.08
2022-12-05T02:30:06.395Z,30.52
2022-12-05T02:32:50.704Z,30.83
2022-12-05T02:35:30.757Z,30.73
2022-12-05T02:38:27.776Z,31.23
2022-12-05T02:41:25.404Z,30.08
2022-12-05T02:44:01.971Z,31.73
2022-12-05T02:46:32.213Z,30.17
2022-12-05T02:49:03.542Z,29.90
2022-12-05T02:51:34.601Z,31.40
2022-12-05T02:54:05.372Z,31.60
2022-12-05T02:56:34.482Z,28.65
2022-12-05T02:59:01.597Z,30.92
2022-12-05T03:01:31.788Z,29.98
2022-12-05T03:04:01.589Z,30.80
2022-12-05T03:06:32.212Z,30.75
2022-12-05T03:09:06.803Z,31.00
2022-12-05T03:11:41.279Z,30.93
2022-12-05T03:14:14.147Z,32.33
2022-12-05T03:16:50.595Z,31.77
2022-12-05T03:19:32.424Z,30.92
2022-12-05T03:22:07.120Z,30.75
2022-12-05T03:24:40.559Z,31.20
2022-12-05T03:27:27.928Z,30.95
2022-12-05T03:30:07.757Z,31.25
2022-12-05T03:32:49.079Z,31.65
2022-12-05T03:35:30.916Z,31.58
2022-12-05T03:38:07.676Z,33.30
2022-12-05T03:40:57.451Z,32.05
2022-12-05T03:43:53.550Z,31.77
2022-12-05T03:46:37.770Z,31.75
2022-12-05T03:49:34.667Z,31.15
2022-12-05T03:52:09.296Z,31.40
2022-12-05T03:54:41.351Z,32.80
2022-12-05T03:57:15.309Z,33.45
2022-12-05T03:59:58.366Z,31.38
2022-12-05T04:02:30.633Z,32.63
2022-12-05T04:05:16.456Z,32.03
2022-12-05T04:07:46.373Z,33.20
2022-12-05T04:10:18.398Z,31.30
2022-12-05T04:12:46.886Z,31.92
2022-12-05T04:15:22.513Z,33.00
2022-12-05T04:18:00.601Z,31.92
2022-12-05T04:20:58.012Z,32.75
2022-12-05T04:23:26.504Z,30.77
2022-12-05T04:26:13.027Z,31.20
2022-12-05T04:28:48.772Z,33.22
2022-12-05T04:31:24.364Z,31.48
2022-12-05T04:33:55.301Z,31.42
2022-12-05T04:36:35.963Z,32.28
2022-12-05T04:39:16.122Z,32.45
2022-12-05T04:41:52.823Z,31.25
2022-12-05T04:44:31.817Z,30.17
2022-12-05T04:47:01.920Z,32.65
2022-12-05T04:49:30.900Z,31.77
2022-12-05T04:52:03.763Z,32.15
2022-12-05T04:54:41.820Z,31.88
2022-12-05T04:57:16.620Z,33.42
2022-12-05T04:59:43.565Z,31.17
2022-12-05T05:02:16.242Z,30.83
2022-12-05T05:04:47.215Z,28.88
2022-12-05T05:07:14.910Z,30.50
2022-12-05T05:09:42.008Z,29.65
2022-12-05T05:12:10.502Z,30.13
2022-12-05T05:14:39.766Z,30.13
2022-12-05T05:17:06.429Z,29.38
2022-12-05T05:19:32.983Z,29.80
2022-12-05T05:22:00.358Z,31.13
2022-12-05T05:24:26.861Z,31.75
2022-12-05T05:26:57.277Z,27.63
2022-12-05T05:29:24.434Z,28.35
2022-12-05T05:31:50.926Z,28.70
2022-12-05T05:34:17.546Z,28.67
2022-12-05T05:36:44.171Z,27.58
2022-12-05T05:39:14.175Z,30.65
2022-12-05T05:41:41.295Z,27.80
2022-12-05T05:44:07.875Z,25.98
2022-12-05T05:46:36.104Z,27.05
2022-12-05T05:49:03.457Z,27.25
2022-12-05T05:51:30.401Z,25.60
2022-12-05T05:53:58.756Z,25.83
2022-12-05T05:56:25.656Z,26.63
2022-12-05T05:59:01.279Z,25.73
2022-12-05T06:01:29.154Z,24.80
2022-12-05T06:03:56.071Z,24.58
2022-12-05T06:06:23.888Z,25.83
2022-12-05T06:08:50.400Z,25.77
2022-12-05T06:11:25.237Z,27.40
2022-12-05T06:13:56.272Z,25.05
2022-12-05T06:16:24.781Z,23.70
2022-12-05T06:18:52.379Z,24.55
2022-12-05T06:21:19.188Z,25.73
2022-12-05T06:23:45.856Z,23.08
2022-12-05T06:26:15.352Z,25.40
2022-12-05T06:28:43.092Z,25.77
2022-12-05T06:31:12.750Z,24.23
2022-12-05T06:33:43.592Z,23.73
2022-12-05T06:36:14.712Z,24.55
2022-12-05T06:38:45.734Z,24.45
2022-12-05T06:41:17.974Z,24.88
2022-12-05T06:43:44.545Z,23.98
2022-12-05T06:46:13.206Z,24.25
2022-12-05T06:48:40.201Z,22.95
2022-12-05T06:51:09.617Z,23.70
2022-12-05T06:53:36.168Z,23.58
2022-12-05T06:56:07.400Z,24.17
2022-12-05T06:58:34.020Z,24.20
2022-12-05T07:01:19.021Z,24.65
2022-12-05T07:03:47.610Z,23.48
2022-12-05T07:06:14.519Z,25.27
2022-12-05T07:08:41.519Z,23.73
2022-12-05T07:11:08.411Z,21.63
2022-12-05T07:13:34.939Z,24.50
2022-12-05T07:16:01.489Z,24.88
2022-12-05T07:18:28.147Z,23.98
2022-12-05T07:21:12.201Z,24.40
2022-12-05T07:23:40.467Z,22.02
2022-12-05T07:26:08.737Z,21.60
2022-12-05T07:28:35.261Z,24.27
2022-12-05T07:31:10.027Z,23.05
2022-12-05T07:33:37.393Z,21.92
2022-12-05T07:36:24.089Z,22.67
2022-12-05T07:38:55.860Z,22.35
2022-12-05T07:41:25.523Z,22.35
2022-12-05T07:43:53.757Z,21.95
2022-12-05T07:46:21.147Z,22.10
2022-12-05T07:48:49.036Z,22.10
2022-12-05T07:51:16.659Z,21.73
2022-12-05T07:53:44.311Z,22.73
2022-12-05T07:56:19.099Z,22.00
2022-12-05T07:58:48.520Z,22.25
2022-12-05T08:01:18.055Z,23.17
2022-12-05T08:03:45.119Z,21.88
2022-12-05T08:06:15.071Z,23.63
2022-12-05T08:08:41.915Z,23.15
2022-12-05T08:11:14.524Z,21.70
2022-12-05T08:13:41.442Z,21.42
2022-12-05T08:16:11.309Z,22.98
2022-12-05T08:18:38.416Z,22.23
2022-12-05T08:21:07.589Z,22.83
2022-12-05T08:23:34.942Z,22.08
2022-12-05T08:26:09.830Z,22.45
2022-12-05T08:28:37.601Z,23.08
2022-12-05T08:31:15.961Z,21.55
2022-12-05T08:33:43.216Z,21.13
2022-12-05T08:36:12.852Z,21.52
2022-12-05T08:38:39.975Z,21.98
2022-12-05T08:41:10.383Z,22.27
2022-12-05T08:43:37.072Z,23.88
2022-12-05T08:46:04.626Z,22.38
2022-12-05T08:48:32.943Z,23.23
2022-12-05T08:51:00.189Z,22.55
2022-12-05T08:53:27.513Z,21.83
2022-12-05T08:55:53.963Z,21.10
2022-12-05T08:58:20.548Z,20.08
2022-12-05T09:00:47.047Z,21.55
2022-12-05T09:03:13.584Z,20.98
2022-12-05T09:05:40.128Z,18.25
2022-12-05T09:08:06.782Z,16.77
2022-12-05T09:10:33.798Z,19.52
2022-12-05T09:13:00.267Z,17.08
2022-12-05T09:15:26.808Z,18.63
2022-12-05T09:17:53.376Z,16.58
2022-12-05T09:20:20.050Z,14.88
2022-12-05T09:22:46.579Z,16.08
2022-12-05T09:25:15.483Z,16.02
2022-12-05T09:27:42.076Z,15.48
2022-12-05T09:30:09.356Z,14.40
2022-12-05T09:32:37.243Z,13.77
2022-12-05T09:35:03.944Z,14.05
2022-12-05T09:37:39.093Z,12.95
2022-12-05T09:40:07.864Z,13.35
2022-12-05T09:42:56.365Z,12.00
2022-12-05T09:45:33.614Z,13.30
2022-12-05T09:48:12.616Z,12.23
2022-12-05T09:50:50.063Z,11.95
2022-12-05T09:53:19.315Z,10.85
2022-12-05T09:56:03.836Z,11.40
2022-12-05T09:58:44.140Z,11.75
2022-12-05T10:01:29.205Z,12.45
2022-12-05T10:04:23.029Z,11.70
2022-12-05T10:07:07.324Z,11.80
2022-12-05T10:09:46.648Z,12.38
2022-12-05T10:12:41.107Z,10.95
2022-12-05T10:15:13.476Z,12.18
2022-12-05T10:17:51.169Z,11.52
2022-12-05T10:20:25.513Z,10.70
2022-12-05T10:22:59.636Z,10.95
2022-12-05T10:25:28.162Z,11.10
2022-12-05T10:28:02.787Z,11.40
2022-12-05T10:30:33.280Z,10.73
2022-12-05T10:33:09.186Z,10.38
2022-12-05T10:35:38.082Z,10.68
2022-12-05T10:38:07.662Z,10.25
2022-12-05T10:40:37.524Z,11.32
2022-12-05T10:43:05.827Z,11.75
2022-12-05T10:45:32.476Z,11.05
2022-12-05T10:47:58.982Z,11.80
2022-12-05T10:50:33.800Z,12.57
2022-12-05T10:53:04.008Z,11.93
2022-12-05T10:55:36.219Z,12.95
2022-12-05T10:58:17.769Z,12.07
2022-12-05T11:00:48.180Z,12.52
2022-12-05T11:03:23.099Z,12.32
2022-12-05T11:05:51.284Z,11.85
2022-12-05T11:08:56.058Z,12.23
2022-12-05T11:11:28.491Z,11.75
2022-12-05T11:14:01.826Z,11.82
2022-12-05T11:16:36.550Z,11.50
2022-12-05T11:19:21.455Z,12.02
2022-12-05T11:21:49.668Z,11.05
2022-12-05T11:24:28.943Z,10.95
2022-12-05T11:26:57.284Z,11.20
2022-12-05T11:29:32.771Z,11.48
2022-12-05T11:34:57.215Z,11.05
2022-12-05T11:37:32.239Z,11.57
2022-12-05T11:40:01.679Z,11.30
2022-12-05T11:43:00.480Z,11.65
2022-12-05T11:45:39.433Z,10.85
2022-12-05T11:48:20.844Z,11.35
2022-12-05T11:51:20.023Z,10.70
2022-12-05T11:55:03.430Z,11.05
2022-12-05T11:57:51.817Z,11.85
2022-12-05T12:00:33.845Z,11.65
2022-12-05T12:03:33.344Z,11.15
2022-12-05T12:06:19.800Z,9.95
2022-12-05T12:09:17.935Z,9.35
2022-12-05T12:11:57.516Z,9.50
2022-12-05T12:14:39.093Z,9.75
2022-12-05T12:17:35.897Z,9.85
2022-12-05T12:20:15.946Z,9.50
2022-12-05T12:22:58.339Z,9.55
2022-12-05T12:25:41.926Z,9.45
2022-12-05T12:28:29.460Z,11.07
2022-12-05T12:31:29.684Z,10.25
2022-12-05T12:34:14.849Z,10.80
2022-12-05T12:36:50.482Z,10.13
2022-12-05T12:39:52.304Z,10.60
2022-12-05T12:42:27.150Z,10.95
2022-12-05T12:45:21.069Z,11.13
2022-12-05T12:47:53.452Z,10.65
2022-12-05T12:50:23.144Z,11.85
2022-12-05T12:53:04.557Z,11.55
2022-12-05T12:55:44.912Z,10.77
2022-12-05T12:58:37.492Z,10.95
2022-12-05T13:01:17.683Z,11.80
2022-12-05T13:03:52.025Z,11.40
2022-12-05T13:06:36.726Z,11.57
2022-12-05T13:09:19.165Z,11.52
2022-12-05T13:11:48.582Z,11.45
2022-12-05T13:14:21.044Z,11.68
2022-12-05T13:16:52.080Z,11.80
2022-12-05T13:19:27.779Z,11.60
2022-12-05T13:21:59.555Z,11.65
2022-12-05T13:24:28.845Z,12.40
2022-12-05T13:27:00.643Z,11.77
2022-12-05T13:29:38.368Z,12.95
2022-12-05T13:32:06.970Z,12.57
2022-12-05T13:34:47.895Z,12.80
2022-12-05T13:37:43.071Z,12.88
2022-12-05T13:41:00.100Z,13.75
2022-12-05T13:43:29.161Z,14.27
2022-12-05T13:46:09.763Z,13.40
2022-12-05T13:48:42.007Z,14.00
2022-12-05T13:51:36.277Z,14.20
2022-12-05T13:54:11.732Z,12.32
2022-12-05T14:00:19.768Z,12.45
2022-12-05T14:02:48.719Z,11.82
2022-12-05T14:05:15.263Z,12.73
2022-12-05T14:08:03.761Z,12.68
2022-12-05T14:10:30.957Z,11.25
2022-12-05T14:13:31.158Z,12.25
2022-12-05T14:16:25.911Z,12.35
2022-12-05T14:19:03.161Z,11.90
2022-12-05T14:21:39.606Z,11.43
2022-12-05T14:24:24.263Z,11.40
2022-12-05T14:27:08.226Z,11.48
2022-12-05T14:29:43.784Z,11.88
2022-12-05T14:34:48.249Z,11.02
2022-12-05T14:37:14.746Z,11.77
2022-12-05T14:39:51.670Z,12.55
2022-12-05T14:42:24.459Z,11.68
2022-12-05T14:44:54.126Z,13.63
2022-12-05T14:47:25.358Z,13.30
2022-12-05T14:49:55.529Z,12.00
2022-12-05T14:52:25.039Z,12.02
2022-12-05T14:54:55.209Z,11.95
2022-12-05T14:57:22.991Z,11.88
2022-12-05T14:59:56.181Z,12.23
2022-12-05T15:02:27.278Z,12.02
2022-12-05T15:05:23.487Z,11.15
2022-12-05T15:07:53.837Z,11.15
2022-12-05T15:10:28.384Z,10.38
2022-12-05T15:12:58.856Z,11.60
2022-12-05T15:15:40.491Z,10.77
2022-12-05T15:18:31.708Z,11.02
2022-12-05T15:21:02.855Z,11.23
2022-12-05T15:23:58.775Z,11.75
2022-12-05T15:29:20.470Z,11.93
2022-12-05T15:31:52.854Z,13.02
2022-12-05T15:34:44.019Z,11.75
2022-12-05T15:37:32.489Z,11.55
2022-12-05T15:40:14.782Z,12.98
2022-12-05T15:42:42.329Z,11.23
2022-12-05T15:45:15.635Z,12.32
2022-12-05T15:47:46.747Z,12.18
2022-12-05T15:50:44.002Z,11.80
2022-12-05T15:53:28.432Z,11.98
2022-12-05T15:56:35.935Z,11.50
2022-12-05T15:59:31.140Z,11.57
2022-12-05T16:02:12.649Z,11.02
2022-12-05T16:04:46.677Z,11.52
2022-12-05T16:07:14.856Z,12.55
2022-12-05T16:09:44.324Z,11.55
2022-12-05T16:12:38.523Z,12.50
2022-12-05T16:15:12.426Z,12.77
2022-12-05T16:17:52.714Z,12.27
2022-12-05T16:20:19.366Z,11.15
2022-12-05T16:22:53.124Z,11.48
2022-12-05T16:25:29.787Z,12.10
2022-12-05T16:28:18.144Z,11.77
2022-12-05T16:31:02.703Z,13.02
2022-12-05T16:33:30.702Z,12.88
2022-12-05T16:36:08.394Z,13.20
2022-12-05T16:38:49.626Z,13.23
2022-12-05T16:41:17.042Z,13.45
2022-12-05T16:43:45.839Z,13.63
2022-12-05T16:46:15.407Z,13.75
2022-12-05T16:48:44.469Z,13.63
2022-12-05T16:51:11.025Z,14.65
2022-12-05T16:53:39.300Z,13.85
2022-12-05T16:56:08.098Z,15.32
2022-12-05T16:58:35.796Z,14.60
2022-12-05T17:01:05.709Z,15.60
2022-12-05T17:03:35.225Z,16.23
2022-12-05T17:06:02.344Z,15.68
2022-12-05T17:08:29.109Z,14.75
2022-12-05T17:10:55.877Z,15.45
2022-12-05T17:13:22.721Z,14.93
2022-12-05T17:15:50.057Z,15.90
2022-12-05T17:18:20.629Z,15.25
2022-12-05T17:20:54.354Z,14.73
2022-12-05T17:23:21.164Z,14.50
2022-12-05T17:25:51.305Z,14.65
2022-12-05T17:28:18.323Z,13.38
2022-12-05T17:30:44.966Z,14.82
2022-12-05T17:33:13.945Z,14.10
2022-12-05T17:35:41.076Z,14.48
2022-12-05T17:38:08.405Z,14.27
2022-12-05T17:40:35.067Z,16.17
2022-12-05T17:43:06.028Z,14.30
2022-12-05T17:45:33.906Z,14.18
2022-12-05T17:48:00.421Z,15.40
2022-12-05T17:50:27.827Z,16.75
2022-12-05T17:53:02.786Z,14.10
2022-12-05T17:55:32.361Z,14.85
2022-12-05T17:57:58.907Z,14.60
2022-12-05T18:00:25.477Z,15.00
2022-12-05T18:02:52.634Z,14.60
2022-12-05T18:05:19.974Z,13.85
2022-12-05T18:07:46.921Z,13.88
2022-12-05T18:10:19.237Z,14.27
2022-12-05T18:12:47.288Z,14.43
2022-12-05T18:15:14.813Z,13.63
2022-12-05T18:17:42.251Z,13.70
2022-12-05T18:20:11.034Z,13.95
2022-12-05T18:22:37.559Z,14.25
2022-12-05T18:25:05.261Z,12.80
2022-12-05T18:27:33.547Z,12.95
2022-12-05T18:30:00.013Z,12.82
2022-12-05T18:32:26.568Z,12.40
2022-12-05T18:34:53.553Z,12.48
2022-12-05T18:37:20.130Z,12.02
2022-12-05T18:39:46.663Z,11.07
2022-12-05T18:42:15.294Z,9.07
2022-12-05T18:44:42.235Z,7.15
2022-12-05T18:47:08.866Z,7.03
2022-12-05T18:49:35.430Z,7.40
2022-12-05T18:52:02.102Z,6.93
2022-12-05T18:54:28.611Z,7.72
2022-12-05T18:56:55.054Z,7.05
2022-12-05T18:59:22.362Z,7.47
2022-12-05T19:01:49.909Z,6.82
2022-12-05T19:04:18.906Z,6.13
2022-12-05T19:06:51.904Z,6.85
2022-12-05T19:09:20.987Z,6.47
2022-12-05T19:11:49.846Z,6.20
2022-12-05T19:14:18.893Z,6.43
2022-12-05T19:16:46.531Z,6.28
2022-12-05T19:19:14.687Z,6.20
2022-12-05T19:21:42.109Z,7.07
2022-12-05T19:24:10.755Z,6.50
2022-12-05T19:26:37.494Z,6.10
2022-12-05T19:29:04.966Z,7.28
2022-12-05T19:31:31.992Z,6.35
2022-12-05T19:34:00.879Z,7.72
2022-12-05T19:36:33.206Z,6.55
2022-12-05T19:38:59.799Z,6.05
2022-12-05T19:41:28.447Z,7.13
2022-12-05T19:43:55.635Z,6.57
2022-12-05T19:46:29.696Z,6.35
2022-12-05T19:48:58.327Z,7.72
2022-12-05T19:51:25.119Z,7.30
2022-12-05T19:53:51.673Z,7.22
2022-12-05T19:56:23.218Z,6.95
2022-12-05T19:58:52.203Z,7.38
2022-12-05T20:01:22.232Z,8.38
2022-12-05T20:03:52.151Z,8.13
2022-12-05T20:06:20.595Z,7.80
2022-12-05T20:08:48.303Z,7.78
2022-12-05T20:11:18.096Z,7.93
2022-12-05T20:13:47.034Z,8.32
2022-12-05T20:16:16.298Z,8.98
2022-12-05T20:18:42.931Z,8.07
2022-12-05T20:21:12.758Z,8.60
2022-12-05T20:23:39.590Z,8.18
2022-12-05T20:26:09.716Z,7.50
2022-12-05T20:28:37.026Z,8.73
2022-12-05T20:31:08.904Z,8.30
2022-12-05T20:33:36.839Z,7.88
2022-12-05T20:36:09.605Z,6.93
2022-12-05T20:38:36.461Z,7.68
2022-12-05T20:41:09.402Z,8.25
2022-12-05T20:43:35.925Z,7.85
2022-12-05T20:46:13.240Z,8.57
2022-12-05T20:48:40.687Z,7.55
2022-12-05T20:51:10.166Z,8.02
2022-12-05T20:53:38.944Z,7.25
2022-12-05T20:56:14.746Z,7.35
2022-12-05T20:58:44.646Z,7.47
2022-12-05T21:01:12.856Z,8.10
2022-12-05T21:03:41.909Z,7.53
2022-12-05T21:06:11.219Z,7.55
2022-12-05T21:08:38.242Z,7.57
2022-12-05T21:11:05.890Z,7.28
2022-12-05T21:13:32.640Z,7.03
2022-12-05T21:16:03.144Z,8.10
2022-12-05T21:18:30.510Z,7.10
2022-12-05T21:21:02.313Z,7.00
2022-12-05T21:23:29.014Z,7.47
2022-12-05T21:26:01.960Z,7.22
2022-12-05T21:28:32.655Z,7.60
2022-12-05T21:31:11.556Z,7.03
2022-12-05T21:33:39.424Z,7.13
2022-12-05T21:36:07.014Z,7.10
2022-12-05T21:38:33.601Z,7.32
2022-12-05T21:41:00.346Z,7.35
2022-12-05T21:43:26.841Z,7.10
2022-12-05T21:45:54.418Z,7.57
2022-12-05T21:48:23.152Z,7.25
2022-12-05T21:50:50.454Z,6.85
2022-12-05T21:53:18.007Z,6.95
2022-12-05T21:55:45.035Z,7.65
2022-12-05T21:58:11.867Z,7.03
2022-12-05T22:00:39.179Z,7.40
2022-12-05T22:03:06.402Z,7.07
2022-12-05T22:05:33.715Z,7.60
2022-12-05T22:08:04.838Z,8.25
2022-12-05T22:10:37.260Z,7.25
2022-12-05T22:13:04.723Z,7.47
2022-12-05T22:15:31.365Z,8.30
2022-12-05T22:17:57.897Z,7.80
2022-12-05T22:20:24.399Z,8.68
2022-12-05T22:22:50.931Z,6.93
2022-12-05T22:25:17.412Z,7.45
2022-12-05T22:27:43.975Z,8.88
2022-12-05T22:30:10.855Z,7.75
2022-12-05T22:32:37.418Z,7.25
2022-12-05T22:35:04.595Z,8.43
2022-12-05T22:37:31.695Z,7.68
2022-12-05T22:39:58.910Z,8.00
2022-12-05T22:42:27.281Z,8.38
2022-12-05T22:44:53.700Z,7.57
2022-12-05T22:47:20.243Z,8.15
2022-12-05T22:49:46.747Z,7.88
2022-12-05T22:52:13.280Z,8.35
2022-12-05T22:54:39.798Z,7.93
2022-12-05T22:57:06.393Z,7.78
2022-12-05T22:59:32.874Z,7.68
2022-12-05T23:01:59.626Z,8.90
2022-12-05T23:04:26.260Z,7.63
2022-12-05T23:06:52.930Z,7.93
2022-12-05T23:09:20.514Z,7.93
2022-12-05T23:11:50.219Z,7.57
2022-12-05T23:14:16.734Z,7.78
2022-12-05T23:16:43.400Z,7.78
2022-12-05T23:19:09.978Z,8.23
2022-12-05T23:21:39.364Z,7.85
2022-12-05T23:24:09.807Z,7.78
2022-12-05T23:26:40.269Z,7.55
2022-12-05T23:29:08.622Z,8.70
2022-12-05T23:31:35.312Z,7.57
2022-12-05T23:34:03.859Z,7.40
2022-12-05T23:36:32.367Z,8.40
2022-12-05T23:38:59.031Z,8.32
2022-12-05T23:41:26.279Z,7.88
2022-12-05T23:43:53.571Z,7.40
2022-12-05T23:46:23.746Z,8.30
2022-12-05T23:48:51.277Z,8.30
2022-12-05T23:51:23.996Z,7.25
2022-12-05T23:53:59.001Z,8.23
2022-12-05T23:56:28.299Z,7.65
2022-12-05T23:58:56.255Z,6.82
